Time;durP1;ratioP1;P1;durP2;ratioP2;P2;SDS_P1;SDS_P2;PMS_P1;PMS_P2;Temp;Humidity;BMP_temperature;BMP_pressure;BME280_temperature;BME280_humidity;BME280_pressure;Samples;Min_cycle;Max_cycle;Signal;HPM_P1;HPM_P2
2022/06/29 00:00:56;;;;;;;1.63;1.53;;;;;;;;;;6249521;22;20181;-82
2022/06/29 00:03:24;;;;;;;3.40;3.17;;;;;;;;;;6249161;22;20224;-82
2022/06/29 00:05:53;;;;;;;0.50;0.50;;;;;;;;;;6249868;22;20170;-82
2022/06/29 00:08:21;;;;;;;1.17;1.13;;;;;;;;;;6276273;22;20181;-82
2022/06/29 00:10:51;;;;;;;1.10;1.10;;;;;;;;;;6250090;22;20177;-82
2022/06/29 00:13:20;;;;;;;1.43;1.03;;;;;;;;;;6249624;22;20199;-82
2022/06/29 00:15:49;;;;;;;1.33;1.33;;;;;;;;;;6249222;22;20181;-82
2022/06/29 00:18:18;;;;;;;1.23;1.13;;;;;;;;;;6249479;22;20181;-82
2022/06/29 00:20:46;;;;;;;6.33;3.00;;;;;;;;;;6249429;22;20173;-82
2022/06/29 00:23:15;;;;;;;2.50;1.23;;;;;;;;;;6249273;22;20224;-82
2022/06/29 00:25:43;;;;;;;3.00;1.23;;;;;;;;;;6249247;22;20177;-82
2022/06/29 00:28:13;;;;;;;0.40;0.40;;;;;;;;;;6276197;22;20181;-82
2022/06/29 00:30:41;;;;;;;1.10;1.03;;;;;;;;;;6249525;22;20177;-82
2022/06/29 00:33:10;;;;;;;1.03;1.03;;;;;;;;;;6278058;22;20219;-82
2022/06/29 00:35:38;;;;;;;0.63;0.63;;;;;;;;;;6251009;22;20169;-82
2022/06/29 00:38:07;;;;;;;3.83;1.40;;;;;;;;;;6251189;22;20184;-81
2022/06/29 00:40:35;;;;;;;2.67;1.03;;;;;;;;;;6251225;22;20188;-82
2022/06/29 00:43:03;;;;;;;4.53;1.33;;;;;;;;;;6277728;22;20204;-82
2022/06/29 00:45:33;;;;;;;1.80;1.70;;;;;;;;;;6251159;22;20191;-82
2022/06/29 00:48:02;;;;;;;1.20;1.10;;;;;;;;;;6277760;22;20169;-82
2022/06/29 00:50:32;;;;;;;1.53;1.43;;;;;;;;;;6276945;22;20183;-81
2022/06/29 00:53:03;;;;;;;1.37;1.37;;;;;;;;;;6251179;22;20169;-82
2022/06/29 00:55:33;;;;;;;2.00;0.73;;;;;;;;;;6278145;22;20169;-81
2022/06/29 00:58:05;;;;;;;0.93;0.90;;;;;;;;;;6251237;22;20230;-81
2022/06/29 01:00:35;;;;;;;3.43;0.97;;;;;;;;;;6251280;22;20174;-82
2022/06/29 01:03:04;;;;;;;1.57;1.47;;;;;;;;;;6251101;22;20238;-81
2022/06/29 01:05:33;;;;;;;0.77;0.77;;;;;;;;;;6250878;22;20180;-82
2022/06/29 01:08:01;;;;;;;1.43;1.13;;;;;;;;;;6250874;22;20177;-82
2022/06/29 01:10:30;;;;;;;1.60;1.30;;;;;;;;;;6250959;22;20177;-82
2022/06/29 01:12:58;;;;;;;1.13;0.70;;;;;;;;;;6251118;22;20173;-82
2022/06/29 01:15:27;;;;;;;2.00;1.37;;;;;;;;;;6277708;22;20169;-82
2022/06/29 01:17:56;;;;;;;2.00;1.70;;;;;;;;;;6250970;22;20177;-82
2022/06/29 01:20:26;;;;;;;1.80;1.70;;;;;;;;;;6250725;22;20230;-82
2022/06/29 01:22:56;;;;;;;0.50;0.50;;;;;;;;;;6250937;22;20189;-82
2022/06/29 01:25:25;;;;;;;0.87;0.87;;;;;;;;;;6250876;22;20232;-82
2022/06/29 01:27:53;;;;;;;1.73;1.63;;;;;;;;;;6251078;22;20216;-82
2022/06/29 01:30:22;;;;;;;2.30;2.10;;;;;;;;;;6250569;22;20177;-82
2022/06/29 01:32:50;;;;;;;2.57;1.77;;;;;;;;;;6251202;22;20172;-82
2022/06/29 01:35:22;;;;;;;2.33;1.60;;;;;;;;;;6249701;22;20187;-82
2022/06/29 01:37:51;;;;;;;0.40;0.40;;;;;;;;;;6250758;22;20169;-82
2022/06/29 01:40:20;;;;;;;0.60;0.60;;;;;;;;;;6250192;22;20177;-82
2022/06/29 01:42:49;;;;;;;0.50;0.50;;;;;;;;;;6250294;22;20247;-82
2022/06/29 01:45:17;;;;;;;1.87;1.77;;;;;;;;;;6250305;22;20183;-82
2022/06/29 01:47:45;;;;;;;0.97;0.97;;;;;;;;;;6276461;22;20175;-82
2022/06/29 01:50:14;;;;;;;0.60;0.60;;;;;;;;;;6250119;22;20181;-82
2022/06/29 01:52:42;;;;;;;0.80;0.80;;;;;;;;;;6250963;22;20173;-82
2022/06/29 01:55:11;;;;;;;1.50;1.40;;;;;;;;;;6250806;22;20179;-82
2022/06/29 01:57:40;;;;;;;1.23;1.13;;;;;;;;;;6250403;22;20288;-82
2022/06/29 02:00:09;;;;;;;0.83;0.60;;;;;;;;;;6250613;22;20219;-82
2022/06/29 02:02:38;;;;;;;1.33;1.23;;;;;;;;;;6250519;22;20196;-82
2022/06/29 02:05:07;;;;;;;0.70;0.70;;;;;;;;;;6250485;22;20193;-82
2022/06/29 02:07:36;;;;;;;0.70;0.70;;;;;;;;;;6277054;22;20169;-82
2022/06/29 02:10:05;;;;;;;1.20;1.20;;;;;;;;;;6276981;22;20170;-82
2022/06/29 02:12:33;;;;;;;0.80;0.80;;;;;;;;;;6250392;22;20177;-82
2022/06/29 02:15:03;;;;;;;0.60;0.60;;;;;;;;;;6250151;22;20173;-82
2022/06/29 02:17:32;;;;;;;0.33;0.33;;;;;;;;;;6277299;22;20220;-82
2022/06/29 02:20:00;;;;;;;0.83;0.83;;;;;;;;;;6249801;22;20177;-82
2022/06/29 02:22:29;;;;;;;1.20;1.20;;;;;;;;;;6250125;22;20207;-82
2022/06/29 02:24:57;;;;;;;0.30;0.30;;;;;;;;;;6277140;22;20170;-82
2022/06/29 02:27:25;;;;;;;0.40;0.40;;;;;;;;;;6249881;22;20218;-81
2022/06/29 02:29:54;;;;;;;0.30;0.30;;;;;;;;;;6276810;22;20197;-82
2022/06/29 02:35:10;;;;;;;0.40;0.40;;;;;;;;;;6250127;22;20173;-82
2022/06/29 02:37:38;;;;;;;0.60;0.60;;;;;;;;;;6250505;22;20179;-82
2022/06/29 02:40:07;;;;;;;3.50;1.00;;;;;;;;;;6250094;22;20204;-82
2022/06/29 02:42:36;;;;;;;0.63;0.63;;;;;;;;;;6276868;22;20166;-81
2022/06/29 02:45:24;;;;;;;0.40;0.40;;;;;;;;;;6276370;22;20178;-81
2022/06/29 02:47:54;;;;;;;0.50;0.50;;;;;;;;;;6276952;22;20169;-81
2022/06/29 02:50:22;;;;;;;0.30;0.30;;;;;;;;;;6249712;22;20175;-82
2022/06/29 02:52:50;;;;;;;0.33;0.33;;;;;;;;;;6250196;22;20173;-82
2022/06/29 02:55:19;;;;;;;0.40;0.40;;;;;;;;;;6249549;22;20188;-81
2022/06/29 02:57:47;;;;;;;0.30;0.30;;;;;;;;;;6250360;22;20173;-81
2022/06/29 03:00:16;;;;;;;1.27;1.27;;;;;;;;;;6249617;22;20185;-82
2022/06/29 03:02:44;;;;;;;0.53;0.53;;;;;;;;;;6249783;22;20181;-82
2022/06/29 03:05:14;;;;;;;0.30;0.30;;;;;;;;;;6249644;22;20200;-82
2022/06/29 03:07:42;;;;;;;0.33;0.33;;;;;;;;;;6249727;22;20177;-82
2022/06/29 03:10:11;;;;;;;0.30;0.30;;;;;;;;;;6276772;22;20172;-82
2022/06/29 03:12:39;;;;;;;0.30;0.30;;;;;;;;;;6249892;22;20177;-82
2022/06/29 03:15:08;;;;;;;0.40;0.40;;;;;;;;;;6249692;22;20170;-82
2022/06/29 03:17:37;;;;;;;0.30;0.30;;;;;;;;;;6250092;22;20176;-82
2022/06/29 03:20:06;;;;;;;0.30;0.30;;;;;;;;;;6249722;22;20255;-82
2022/06/29 03:22:36;;;;;;;0.30;0.30;;;;;;;;;;6249662;22;20226;-82
2022/06/29 03:25:07;;;;;;;0.20;0.20;;;;;;;;;;6249723;22;20197;-82
2022/06/29 03:27:36;;;;;;;0.40;0.40;;;;;;;;;;6276324;22;20197;-82
2022/06/29 03:30:05;;;;;;;1.33;1.33;;;;;;;;;;6249990;22;20173;-82
2022/06/29 03:32:33;;;;;;;0.50;0.50;;;;;;;;;;6249650;22;20170;-82
2022/06/29 03:35:02;;;;;;;0.30;0.30;;;;;;;;;;6249422;22;20223;-82
2022/06/29 03:37:30;;;;;;;1.90;1.57;;;;;;;;;;6249583;22;20173;-82
2022/06/29 03:40:00;;;;;;;1.77;1.67;;;;;;;;;;6275428;22;20177;-82
2022/06/29 03:42:29;;;;;;;0.30;0.30;;;;;;;;;;6250016;22;20219;-82
2022/06/29 03:44:57;;;;;;;0.30;0.30;;;;;;;;;;6249411;22;20200;-82
2022/06/29 03:47:26;;;;;;;0.30;0.30;;;;;;;;;;6276293;22;20196;-82
2022/06/29 03:49:54;;;;;;;0.30;0.30;;;;;;;;;;6249583;22;20180;-82
2022/06/29 03:52:22;;;;;;;0.30;0.30;;;;;;;;;;6250050;22;20243;-82
2022/06/29 03:54:51;;;;;;;0.87;0.87;;;;;;;;;;6249892;22;20185;-82
2022/06/29 03:57:20;;;;;;;0.37;0.37;;;;;;;;;;6250155;22;20173;-82
2022/06/29 03:59:49;;;;;;;0.50;0.50;;;;;;;;;;6250134;22;20183;-82
2022/06/29 04:02:17;;;;;;;0.30;0.30;;;;;;;;;;6249805;22;20173;-82
2022/06/29 04:04:49;;;;;;;1.27;1.27;;;;;;;;;;6276294;22;20189;-82
2022/06/29 04:07:17;;;;;;;1.87;1.87;;;;;;;;;;6250664;22;20174;-82
2022/06/29 04:09:46;;;;;;;0.30;0.30;;;;;;;;;;6251887;22;20181;-82
2022/06/29 04:12:14;;;;;;;0.40;0.40;;;;;;;;;;6251673;22;20260;-82
2022/06/29 04:14:44;;;;;;;0.87;0.87;;;;;;;;;;6251490;22;20196;-82
2022/06/29 04:17:13;;;;;;;0.57;0.57;;;;;;;;;;6278272;22;20177;-82
2022/06/29 04:19:41;;;;;;;0.30;0.30;;;;;;;;;;6278233;22;20169;-82
2022/06/29 04:22:09;;;;;;;1.03;0.93;;;;;;;;;;6251328;22;20173;-82
2022/06/29 04:24:38;;;;;;;1.37;1.07;;;;;;;;;;6251063;22;20193;-83
2022/06/29 04:27:09;;;;;;;0.40;0.40;;;;;;;;;;6251126;22;20206;-82
2022/06/29 04:29:37;;;;;;;1.00;1.00;;;;;;;;;;6251250;22;20179;-82
2022/06/29 04:32:08;;;;;;;0.50;0.50;;;;;;;;;;6251296;22;20206;-82
2022/06/29 04:34:40;;;;;;;2.40;1.50;;;;;;;;;;6251285;22;20180;-82
2022/06/29 04:37:09;;;;;;;0.97;0.90;;;;;;;;;;6278309;22;20182;-82
2022/06/29 04:39:38;;;;;;;1.47;1.07;;;;;;;;;;6278063;22;20166;-82
2022/06/29 04:42:06;;;;;;;0.40;0.40;;;;;;;;;;6251470;22;20181;-82
2022/06/29 04:44:35;;;;;;;0.80;0.80;;;;;;;;;;6250868;22;20198;-82
2022/06/29 04:47:03;;;;;;;1.20;1.20;;;;;;;;;;6278163;22;20202;-82
2022/06/29 04:49:33;;;;;;;0.60;0.60;;;;;;;;;;6278166;22;20170;-82
2022/06/29 04:52:02;;;;;;;0.40;0.40;;;;;;;;;;6277718;22;20223;-82
2022/06/29 04:54:30;;;;;;;0.30;0.30;;;;;;;;;;6251448;22;20257;-82
2022/06/29 04:56:59;;;;;;;0.33;0.33;;;;;;;;;;6251039;22;20179;-82
2022/06/29 04:59:27;;;;;;;0.47;0.47;;;;;;;;;;6251591;22;20182;-83
2022/06/29 05:01:56;;;;;;;1.10;1.10;;;;;;;;;;6250890;22;20180;-82
2022/06/29 05:04:25;;;;;;;1.33;1.33;;;;;;;;;;6251216;22;20287;-82
2022/06/29 05:06:54;;;;;;;0.40;0.40;;;;;;;;;;6251233;22;20180;-82
2022/06/29 05:09:23;;;;;;;0.73;0.73;;;;;;;;;;6278422;22;20196;-83
2022/06/29 05:11:52;;;;;;;0.87;0.87;;;;;;;;;;6277854;22;20167;-82
2022/06/29 05:14:21;;;;;;;12.03;1.27;;;;;;;;;;6250798;22;20201;-83
2022/06/29 05:16:50;;;;;;;1.23;1.13;;;;;;;;;;6251013;22;20173;-82
2022/06/29 05:19:18;;;;;;;1.63;1.53;;;;;;;;;;6278468;22;20166;-83
2022/06/29 05:21:47;;;;;;;1.10;1.10;;;;;;;;;;6278384;22;20179;-82
2022/06/29 05:24:17;;;;;;;0.90;0.90;;;;;;;;;;6277709;22;20225;-83
2022/06/29 05:26:45;;;;;;;0.80;0.80;;;;;;;;;;6276182;22;20209;-82
2022/06/29 05:29:17;;;;;;;1.77;1.67;;;;;;;;;;6251514;22;20174;-83
2022/06/29 05:31:45;;;;;;;1.03;0.90;;;;;;;;;;6250929;22;20177;-83
2022/06/29 05:34:14;;;;;;;4.40;3.03;;;;;;;;;;6251280;22;20173;-82
2022/06/29 05:36:43;;;;;;;2.87;2.30;;;;;;;;;;6277992;22;20182;-82
2022/06/29 05:39:11;;;;;;;0.73;0.73;;;;;;;;;;6251417;22;20170;-83
2022/06/29 05:41:41;;;;;;;0.30;0.30;;;;;;;;;;6250864;22;20212;-83
2022/06/29 05:44:10;;;;;;;1.33;1.33;;;;;;;;;;6251038;22;20171;-82
2022/06/29 05:46:39;;;;;;;0.80;0.80;;;;;;;;;;6251129;22;20269;-82
2022/06/29 05:49:07;;;;;;;1.10;1.07;;;;;;;;;;6251520;22;20176;-83
2022/06/29 05:51:36;;;;;;;0.40;0.40;;;;;;;;;;6278165;22;20169;-82
2022/06/29 05:54:08;;;;;;;0.50;0.50;;;;;;;;;;6278164;22;20181;-83
2022/06/29 05:56:38;;;;;;;1.33;1.23;;;;;;;;;;6251542;22;20176;-82
2022/06/29 05:59:08;;;;;;;1.83;1.73;;;;;;;;;;6251373;22;20175;-82
2022/06/29 06:01:37;;;;;;;1.50;1.40;;;;;;;;;;6278056;22;20168;-82
2022/06/29 06:04:06;;;;;;;25.17;2.10;;;;;;;;;;6277804;22;20197;-81
2022/06/29 06:06:34;;;;;;;1.37;1.07;;;;;;;;;;6250401;22;20176;-82
2022/06/29 06:09:03;;;;;;;0.90;0.90;;;;;;;;;;6251166;22;20178;-84
2022/06/29 06:11:32;;;;;;;0.97;0.97;;;;;;;;;;6277362;22;20179;-82
2022/06/29 06:14:00;;;;;;;1.27;1.10;;;;;;;;;;6250802;22;20203;-83
2022/06/29 06:16:30;;;;;;;1.60;1.50;;;;;;;;;;6277505;22;20231;-83
2022/06/29 06:19:08;;;;;;;0.50;0.50;;;;;;;;;;6250484;22;20187;-83
2022/06/29 06:21:37;;;;;;;1.43;1.33;;;;;;;;;;6277706;22;20243;-83
2022/06/29 06:24:05;;;;;;;3.47;2.37;;;;;;;;;;6250528;22;20219;-83
2022/06/29 06:26:34;;;;;;;2.13;1.93;;;;;;;;;;6250359;22;20211;-83
2022/06/29 06:29:06;;;;;;;2.47;2.03;;;;;;;;;;6250599;22;20257;-83
2022/06/29 06:31:36;;;;;;;2.53;1.43;;;;;;;;;;6250998;22;20174;-82
2022/06/29 06:34:05;;;;;;;3.67;2.67;;;;;;;;;;6250931;22;20207;-83
2022/06/29 06:36:33;;;;;;;3.90;1.70;;;;;;;;;;6250855;22;20191;-82
2022/06/29 06:39:02;;;;;;;2.50;2.30;;;;;;;;;;6250587;22;20212;-82
2022/06/29 06:41:30;;;;;;;2.77;2.33;;;;;;;;;;6250427;22;20180;-81
2022/06/29 06:43:59;;;;;;;0.97;0.97;;;;;;;;;;6250549;22;20180;-81
2022/06/29 06:46:28;;;;;;;4.83;2.30;;;;;;;;;;6250464;22;20198;-82
2022/06/29 06:48:59;;;;;;;2.93;2.73;;;;;;;;;;6250913;22;20236;-81
2022/06/29 06:51:27;;;;;;;6.50;1.50;;;;;;;;;;6250485;22;20178;-81
2022/06/29 06:53:56;;;;;;;2.00;1.87;;;;;;;;;;6250301;22;20182;-82
2022/06/29 06:56:25;;;;;;;5.10;2.67;;;;;;;;;;6250739;22;20205;-81
2022/06/29 06:58:54;;;;;;;1.47;1.30;;;;;;;;;;6250543;22;20179;-82
2022/06/29 07:01:25;;;;;;;4.17;2.10;;;;;;;;;;6250289;22;20230;-82
2022/06/29 07:03:55;;;;;;;2.83;2.07;;;;;;;;;;6250077;22;20202;-82
2022/06/29 07:06:25;;;;;;;4.23;3.07;;;;;;;;;;6250562;22;20200;-82
2022/06/29 07:08:54;;;;;;;1.47;1.37;;;;;;;;;;6250476;22;20176;-82
2022/06/29 07:11:23;;;;;;;2.10;1.97;;;;;;;;;;6250265;22;20176;-82
2022/06/29 07:13:52;;;;;;;3.67;2.70;;;;;;;;;;6276762;22;20229;-82
2022/06/29 07:16:20;;;;;;;0.30;0.30;;;;;;;;;;6250442;22;20226;-82
2022/06/29 07:18:49;;;;;;;6.33;2.77;;;;;;;;;;6249820;22;20175;-83
2022/06/29 07:21:18;;;;;;;6.23;2.97;;;;;;;;;;6250037;22;20178;-82
2022/06/29 07:23:58;;;;;;;2.03;1.93;;;;;;;;;;6249026;22;20173;-81
2022/06/29 07:26:31;;;;;;;3.77;3.00;;;;;;;;;;6246037;22;20212;-82
2022/06/29 07:29:04;;;;;;;3.53;3.23;;;;;;;;;;6249286;22;20208;-83
2022/06/29 07:31:46;;;;;;;3.80;2.83;;;;;;;;;;6249625;22;20172;-83
2022/06/29 07:34:56;;;;;;;3.80;3.50;;;;;;;;;;6252605;22;20179;-83
2022/06/29 07:37:25;;;;;;;5.77;2.70;;;;;;;;;;6250100;22;20180;-83
2022/06/29 07:39:55;;;;;;;6.53;3.40;;;;;;;;;;6249808;22;20179;-83
2022/06/29 07:42:51;;;;;;;6.87;2.00;;;;;;;;;;6248904;22;20183;-83
2022/06/29 07:45:20;;;;;;;2.30;1.47;;;;;;;;;;6249394;22;20187;-83
2022/06/29 07:47:54;;;;;;;2.63;1.77;;;;;;;;;;6249473;22;20175;-83
2022/06/29 07:53:42;;;;;;;2.17;2.03;;;;;;;;;;6215303;22;20258;-83
2022/06/29 07:56:12;;;;;;;2.63;2.20;;;;;;;;;;6249679;22;20204;-83
2022/06/29 07:58:43;;;;;;;7.07;2.00;;;;;;;;;;6249922;22;20199;-83
2022/06/29 08:01:12;;;;;;;0.73;0.73;;;;;;;;;;6250366;22;20183;-83
2022/06/29 08:03:51;;;;;;;0.97;0.97;;;;;;;;;;6249942;22;20206;-83
2022/06/29 08:06:26;;;;;;;3.50;3.13;;;;;;;;;;6249684;22;20193;-82
2022/06/29 08:09:03;;;;;;;2.03;1.83;;;;;;;;;;6250944;22;20182;-83
2022/06/29 08:12:02;;;;;;;1.57;1.47;;;;;;;;;;6250739;22;20240;-82
2022/06/29 08:14:58;;;;;;;3.40;1.80;;;;;;;;;;6151724;22;20179;-84
2022/06/29 08:17:54;;;;;;;2.20;1.53;;;;;;;;;;6229263;22;20193;-83
2022/06/29 08:20:25;;;;;;;0.87;0.87;;;;;;;;;;6248397;22;20186;-82
2022/06/29 08:22:56;;;;;;;0.73;0.73;;;;;;;;;;6248696;22;20180;-81
2022/06/29 08:25:28;;;;;;;3.53;2.53;;;;;;;;;;6249928;22;20226;-83
2022/06/29 08:27:57;;;;;;;3.13;2.93;;;;;;;;;;6249464;22;20212;-82
2022/06/29 08:30:35;;;;;;;6.13;2.20;;;;;;;;;;6247852;22;20226;-82
2022/06/29 08:33:08;;;;;;;2.53;1.40;;;;;;;;;;6249955;22;20187;-83
2022/06/29 08:35:42;;;;;;;1.43;1.33;;;;;;;;;;6250164;22;20196;-84
2022/06/29 08:38:11;;;;;;;0.57;0.57;;;;;;;;;;6249323;22;20191;-83
2022/06/29 08:40:48;;;;;;;0.73;0.73;;;;;;;;;;6251490;22;20272;-81
2022/06/29 08:43:17;;;;;;;2.87;1.07;;;;;;;;;;6250633;22;20184;-83
2022/06/29 08:45:46;;;;;;;3.53;2.47;;;;;;;;;;6251039;22;20283;-83
2022/06/29 08:48:20;;;;;;;0.60;0.60;;;;;;;;;;6249832;22;20195;-82
2022/06/29 08:50:51;;;;;;;2.43;2.03;;;;;;;;;;6249553;22;20184;-83
2022/06/29 08:53:24;;;;;;;2.07;1.87;;;;;;;;;;6248790;22;20181;-82
2022/06/29 08:55:58;;;;;;;0.73;0.63;;;;;;;;;;6249223;22;20183;-82
2022/06/29 08:58:27;;;;;;;2.00;1.63;;;;;;;;;;6249603;22;20242;-83
2022/06/29 09:01:01;;;;;;;1.10;1.10;;;;;;;;;;6249749;22;20175;-82
2022/06/29 09:03:44;;;;;;;2.27;1.70;;;;;;;;;;6246569;22;20197;-83
2022/06/29 09:06:18;;;;;;;2.53;2.20;;;;;;;;;;6249157;22;20247;-82
2022/06/29 09:08:50;;;;;;;2.33;1.63;;;;;;;;;;6250965;22;20281;-82
2022/06/29 09:11:22;;;;;;;2.37;1.43;;;;;;;;;;6248565;22;20175;-82
2022/06/29 09:14:10;;;;;;;10.40;1.63;;;;;;;;;;6249095;22;20182;-84
2022/06/29 09:17:13;;;;;;;3.67;1.90;;;;;;;;;;6246808;22;20212;-83
2022/06/29 09:19:58;;;;;;;1.27;1.17;;;;;;;;;;6249330;22;20174;-84
2022/06/29 09:22:53;;;;;;;1.83;1.30;;;;;;;;;;6249159;22;20308;-83
2022/06/29 09:25:23;;;;;;;1.57;1.47;;;;;;;;;;6274342;22;20191;-82
2022/06/29 09:27:58;;;;;;;2.50;1.87;;;;;;;;;;6247668;22;20297;-84
2022/06/29 09:30:41;;;;;;;2.10;0.87;;;;;;;;;;6248673;22;20181;-84
2022/06/29 09:33:16;;;;;;;2.87;1.93;;;;;;;;;;6248873;22;20179;-83
2022/06/29 09:36:05;;;;;;;3.07;1.63;;;;;;;;;;6249212;22;20174;-82
2022/06/29 09:38:39;;;;;;;2.20;1.03;;;;;;;;;;6247279;22;20174;-83
2022/06/29 09:41:10;;;;;;;5.53;2.37;;;;;;;;;;6248410;22;20243;-82
2022/06/29 09:43:47;;;;;;;3.30;1.87;;;;;;;;;;6248870;22;20185;-82
2022/06/29 09:46:22;;;;;;;1.20;1.13;;;;;;;;;;6247358;22;20201;-84
2022/06/29 09:49:03;;;;;;;2.67;1.60;;;;;;;;;;6250169;22;20236;-83
2022/06/29 09:51:45;;;;;;;3.60;2.63;;;;;;;;;;6248373;22;20186;-84
2022/06/29 09:54:21;;;;;;;0.43;0.43;;;;;;;;;;6248297;22;20203;-83
2022/06/29 09:56:55;;;;;;;0.37;0.37;;;;;;;;;;6247886;22;20186;-82
2022/06/29 10:02:39;;;;;;;3.83;2.13;;;;;;;;;;6248610;22;20262;-82
2022/06/29 10:05:54;;;;;;;3.70;2.00;;;;;;;;;;6247825;22;20206;-87
2022/06/29 10:08:34;;;;;;;3.73;2.13;;;;;;;;;;6248497;22;20255;-84
2022/06/29 10:14:03;;;;;;;3.47;1.20;;;;;;;;;;6247590;22;20265;-82
2022/06/29 10:16:36;;;;;;;2.97;2.13;;;;;;;;;;6248245;22;20220;-84
2022/06/29 10:19:27;;;;;;;2.83;2.17;;;;;;;;;;6248586;22;20179;-83
2022/06/29 10:21:58;;;;;;;1.80;1.70;;;;;;;;;;6248461;22;20175;-83
2022/06/29 10:25:00;;;;;;;1.73;1.63;;;;;;;;;;6248975;22;20174;-83
2022/06/29 10:27:31;;;;;;;2.23;2.03;;;;;;;;;;6247619;22;20213;-83
2022/06/29 10:30:25;;;;;;;3.13;2.27;;;;;;;;;;6249032;22;20229;-82
2022/06/29 10:33:20;;;;;;;1.50;0.60;;;;;;;;;;6248358;22;20182;-81
2022/06/29 10:39:52;;;;;;;0.83;0.83;;;;;;;;;;6192863;23;20181;-81
2022/06/29 10:43:36;;;;;;;4.13;2.00;;;;;;;;;;6236796;22;20177;-82
2022/06/29 10:46:35;;;;;;;1.70;1.17;;;;;;;;;;6272260;22;20210;-82
2022/06/29 10:49:37;;;;;;;1.87;1.50;;;;;;;;;;6248677;22;20221;-83
2022/06/29 10:52:47;;;;;;;0.50;0.50;;;;;;;;;;6243150;22;20181;-83
2022/06/29 10:55:50;;;;;;;1.20;1.20;;;;;;;;;;6247585;22;20183;-83
2022/06/29 10:58:38;;;;;;;1.77;1.67;;;;;;;;;;6247830;22;20180;-83
2022/06/29 11:01:29;;;;;;;2.77;1.90;;;;;;;;;;6229822;22;20180;-84
2022/06/29 11:04:23;;;;;;;3.77;2.10;;;;;;;;;;6248713;22;20196;-85
2022/06/29 11:13:57;;;;;;;5.90;2.20;;;;;;;;;;6086238;23;20186;-84
2022/06/29 11:19:51;;;;;;;4.30;1.70;;;;;;;;;;6097374;23;20207;-85
2022/06/29 11:22:50;;;;;;;2.20;1.97;;;;;;;;;;6099269;23;20206;-85
2022/06/29 11:25:27;;;;;;;3.70;1.87;;;;;;;;;;6123863;23;20186;-83
2022/06/29 11:28:06;;;;;;;2.73;1.13;;;;;;;;;;6099024;23;20225;-84
2022/06/29 11:30:41;;;;;;;3.63;1.27;;;;;;;;;;6099305;23;20175;-82
2022/06/29 11:33:19;;;;;;;4.40;1.43;;;;;;;;;;6099152;23;20180;-83
2022/06/29 11:36:17;;;;;;;1.03;0.97;;;;;;;;;;6122511;23;20183;-82
2022/06/29 11:45:06;;;;;;;4.47;2.03;;;;;;;;;;6097502;23;20245;-84
2022/06/29 11:47:53;;;;;;;2.47;1.60;;;;;;;;;;6121202;23;20197;-83
2022/06/29 11:50:24;;;;;;;2.83;1.40;;;;;;;;;;6153253;22;20185;-84
2022/06/29 11:52:53;;;;;;;1.43;1.30;;;;;;;;;;6247910;22;20176;-83
2022/06/29 11:55:43;;;;;;;1.57;1.10;;;;;;;;;;6247607;22;20184;-82
2022/06/29 11:58:20;;;;;;;2.73;1.10;;;;;;;;;;6247114;22;20169;-82
2022/06/29 12:00:56;;;;;;;3.47;3.17;;;;;;;;;;6247539;22;20181;-81
2022/06/29 12:03:31;;;;;;;4.23;3.83;;;;;;;;;;6247320;22;20228;-81
2022/06/29 12:06:34;;;;;;;6.80;4.00;;;;;;;;;;6247303;22;20176;-83
2022/06/29 12:09:18;;;;;;;2.30;1.97;;;;;;;;;;6247475;22;20200;-82
2022/06/29 12:12:22;;;;;;;7.33;4.50;;;;;;;;;;6247210;22;20177;-84
2022/06/29 12:14:55;;;;;;;2.90;2.47;;;;;;;;;;6247779;22;20212;-82
2022/06/29 12:17:45;;;;;;;8.20;5.60;;;;;;;;;;6247528;22;20184;-83
2022/06/29 12:20:35;;;;;;;3.97;3.67;;;;;;;;;;6247695;22;20181;-82
2022/06/29 12:23:35;;;;;;;5.20;4.00;;;;;;;;;;6248273;22;20180;-85
2022/06/29 12:26:12;;;;;;;4.33;3.73;;;;;;;;;;6221594;22;20184;-82
2022/06/29 12:28:41;;;;;;;9.33;6.63;;;;;;;;;;6248746;22;20200;-82
2022/06/29 12:31:17;;;;;;;3.90;3.60;;;;;;;;;;6249064;22;20176;-83
2022/06/29 12:33:51;;;;;;;3.43;3.07;;;;;;;;;;6249025;22;20173;-84
2022/06/29 12:36:51;;;;;;;3.93;2.73;;;;;;;;;;6248515;22;20198;-83
2022/06/29 12:39:41;;;;;;;4.63;3.90;;;;;;;;;;6247640;22;20180;-84
2022/06/29 12:42:14;;;;;;;3.47;2.63;;;;;;;;;;6249401;22;20208;-82
2022/06/29 12:44:48;;;;;;;2.37;2.17;;;;;;;;;;6249421;22;20176;-84
2022/06/29 12:47:30;;;;;;;7.73;5.00;;;;;;;;;;6248130;22;20179;-83
2022/06/29 12:50:31;;;;;;;4.83;1.90;;;;;;;;;;6249496;22;20227;-84
2022/06/29 12:53:08;;;;;;;3.57;3.13;;;;;;;;;;6249011;22;20176;-85
2022/06/29 12:55:45;;;;;;;4.57;4.17;;;;;;;;;;6276305;22;20172;-86
2022/06/29 12:58:26;;;;;;;5.17;4.67;;;;;;;;;;6249162;22;20169;-83
2022/06/29 13:01:03;;;;;;;4.17;2.43;;;;;;;;;;6248917;22;20267;-85
2022/06/29 13:03:34;;;;;;;4.90;2.57;;;;;;;;;;6246814;22;20201;-84
2022/06/29 13:06:13;;;;;;;4.90;2.23;;;;;;;;;;6248628;22;20255;-85
2022/06/29 13:08:42;;;;;;;33.03;4.70;;;;;;;;;;6249140;22;20195;-84
2022/06/29 13:11:13;;;;;;;6.23;2.90;;;;;;;;;;6248589;22;20176;-84
2022/06/29 13:14:15;;;;;;;3.67;3.37;;;;;;;;;;6248712;22;20182;-83
2022/06/29 13:17:24;;;;;;;;;;;;;;;;;;;;;
2022/06/29 13:20:39;;;;;;;3.10;2.90;;;;;;;;;;6248650;22;20179;-84
2022/06/29 13:23:25;;;;;;;4.57;2.80;;;;;;;;;;6249012;22;20202;-86
2022/06/29 13:25:59;;;;;;;6.80;2.30;;;;;;;;;;6248797;22;20182;-85
2022/06/29 13:28:29;;;;;;;3.90;3.03;;;;;;;;;;6220288;23;20253;-85
2022/06/29 13:31:08;;;;;;;0.93;0.90;;;;;;;;;;6219541;23;20184;-84
2022/06/29 13:33:37;;;;;;;3.97;1.77;;;;;;;;;;6192857;23;20178;-84
2022/06/29 13:36:15;;;;;;;2.50;1.80;;;;;;;;;;6218801;23;20234;-84
2022/06/29 13:39:03;;;;;;;2.80;1.83;;;;;;;;;;6193953;23;20265;-84
2022/06/29 13:41:38;;;;;;;4.20;2.70;;;;;;;;;;6192771;23;20270;-82
2022/06/29 13:44:16;;;;;;;1.73;1.50;;;;;;;;;;6192389;23;20186;-83
2022/06/29 13:47:06;;;;;;;2.63;2.13;;;;;;;;;;6196775;23;20188;-86
2022/06/29 13:49:37;;;;;;;2.77;1.47;;;;;;;;;;6192391;23;20198;-85
2022/06/29 13:52:08;;;;;;;3.23;2.80;;;;;;;;;;6192781;23;20178;-83
2022/06/29 13:54:40;;;;;;;4.70;2.10;;;;;;;;;;6192736;23;20198;-83
2022/06/29 13:57:11;;;;;;;1.50;1.40;;;;;;;;;;6193251;23;20177;-84
2022/06/29 13:59:40;;;;;;;1.57;1.03;;;;;;;;;;6193283;23;20176;-85
2022/06/29 14:02:11;;;;;;;3.13;2.60;;;;;;;;;;6192829;23;20183;-84
2022/06/29 14:04:40;;;;;;;5.27;2.20;;;;;;;;;;6193408;23;20200;-84
2022/06/29 14:07:10;;;;;;;2.20;1.73;;;;;;;;;;6194707;23;20183;-83
2022/06/29 14:09:59;;;;;;;2.63;2.43;;;;;;;;;;6193506;23;20200;-85
2022/06/29 14:12:38;;;;;;;4.30;2.77;;;;;;;;;;6192793;23;20180;-87
2022/06/29 14:15:08;;;;;;;5.60;2.20;;;;;;;;;;6192808;23;20184;-86
2022/06/29 14:17:41;;;;;;;3.20;2.53;;;;;;;;;;6192795;23;20181;-86
2022/06/29 14:20:11;;;;;;;2.60;2.10;;;;;;;;;;6194427;23;20179;-86
2022/06/29 14:22:42;;;;;;;3.53;2.83;;;;;;;;;;6194076;23;20214;-86
2022/06/29 14:25:14;;;;;;;3.93;3.00;;;;;;;;;;6192821;23;20186;-87
2022/06/29 14:27:47;;;;;;;5.67;2.90;;;;;;;;;;6240047;22;20288;-87
2022/06/29 14:30:19;;;;;;;2.83;2.33;;;;;;;;;;6248731;22;20256;-86
2022/06/29 14:32:48;;;;;;;3.23;2.93;;;;;;;;;;6248420;22;20175;-86
2022/06/29 14:35:17;;;;;;;3.00;1.90;;;;;;;;;;6248079;22;20205;-85
2022/06/29 14:37:48;;;;;;;2.43;1.27;;;;;;;;;;6247972;22;20179;-87
2022/06/29 14:40:21;;;;;;;4.10;1.50;;;;;;;;;;6248157;22;20178;-86
2022/06/29 14:42:51;;;;;;;2.10;1.90;;;;;;;;;;6248654;22;20179;-87
2022/06/29 14:45:24;;;;;;;2.60;2.40;;;;;;;;;;6247632;22;20180;-87
2022/06/29 14:47:59;;;;;;;3.10;2.33;;;;;;;;;;6247951;22;20188;-87
2022/06/29 14:50:31;;;;;;;1.27;1.27;;;;;;;;;;6247142;22;20204;-86
2022/06/29 14:53:12;;;;;;;2.37;1.33;;;;;;;;;;6247791;22;20214;-86
2022/06/29 14:56:05;;;;;;;2.00;1.73;;;;;;;;;;6246680;22;20234;-85
2022/06/29 14:58:54;;;;;;;2.50;1.77;;;;;;;;;;6248478;22;20177;-85
2022/06/29 15:01:40;;;;;;;7.73;3.07;;;;;;;;;;6247434;22;20264;-86
2022/06/29 15:04:19;;;;;;;1.20;1.20;;;;;;;;;;6247296;22;20203;-85
2022/06/29 15:07:39;;;;;;;2.80;1.10;;;;;;;;;;6132643;23;20198;-86
2022/06/29 15:10:31;;;;;;;4.60;3.13;;;;;;;;;;6126027;23;20211;-86
2022/06/29 15:13:41;;;;;;;5.93;1.80;;;;;;;;;;6247803;22;20199;-85
2022/06/29 15:16:33;;;;;;;5.87;1.60;;;;;;;;;;6249489;22;20180;-86
2022/06/29 15:19:30;;;;;;;5.07;2.03;;;;;;;;;;6126772;23;20176;-85
2022/06/29 15:22:38;;;;;;;3.43;1.57;;;;;;;;;;6150156;23;20175;-85
2022/06/29 15:25:14;;;;;;;1.53;1.43;;;;;;;;;;6119733;23;20176;-85
2022/06/29 15:28:12;;;;;;;1.57;0.80;;;;;;;;;;6126568;23;20550;-85
2022/06/29 15:31:08;;;;;;;1.30;1.20;;;;;;;;;;6125301;23;20206;-85
2022/06/29 15:39:11;;;;;;;0.50;0.50;;;;;;;;;;6150769;23;20176;-85
2022/06/29 15:41:39;;;;;;;1.30;1.20;;;;;;;;;;6151825;23;20270;-85
2022/06/29 15:44:10;;;;;;;3.10;0.93;;;;;;;;;;6126345;23;20184;-84
2022/06/29 15:46:38;;;;;;;0.70;0.70;;;;;;;;;;6125840;23;20176;-84
2022/06/29 15:49:07;;;;;;;2.47;1.13;;;;;;;;;;6126401;23;20192;-85
2022/06/29 15:51:36;;;;;;;1.50;1.40;;;;;;;;;;6125324;23;20231;-85
2022/06/29 15:56:51;;;;;;;0.57;0.57;;;;;;;;;;6196863;22;20180;-84
2022/06/29 15:59:20;;;;;;;5.63;1.53;;;;;;;;;;6249701;22;20211;-83
2022/06/29 16:01:49;;;;;;;1.70;1.60;;;;;;;;;;6247872;22;20173;-84
2022/06/29 16:04:18;;;;;;;0.90;0.90;;;;;;;;;;6250220;22;20196;-83
2022/06/29 16:06:47;;;;;;;2.97;1.20;;;;;;;;;;6251814;22;20173;-84
2022/06/29 16:09:15;;;;;;;1.40;0.87;;;;;;;;;;6251456;22;20169;-84